Carnival Pride — H3VU — position and weather

sailwx.info

Track history (hours):
 
Tides and Currents Weather Stations Pressure Air Temp Water Temp Dewpoint Dewpoint Depression Visibility Wind Speed Wind Dir Waves Ship Positions

Carnival Pride

Operator: Carnival Cruise Lines

Last reported at 2017-Feb-27 04:27 UTC. Time now 2017-Feb-28 05:47 UTC.
Position N 27°34' W 083°02'.

Type: Ship. MMSI: 354215000.

Date/timePositionNaut miles runAvg speedWind from/ knotsBaromVisibWave heightAir tempDewpointWater temp
2017-Feb-27 04:27N 27°34' W 083°02'1314.6
2017-Feb-27 03:33N 27°37' W 082°48'1313.2
2017-Feb-27 02:33N 27°41' W 082°34'1111.2
2017-Feb-27 01:33N 27°51' W 082°27'6 5.8
2017-Feb-27 00:31N 27°57' W 082°27'0 0.0
2017-Feb-26 23:31N 27°57' W 082°27'0 0.0
2017-Feb-26 22:34N 27°57' W 082°27'0 0.0
2017-Feb-26 21:31N 27°57' W 082°27'0 0.0
2017-Feb-26 20:31N 27°57' W 082°27'0 0.0
2017-Feb-26 19:34N 27°57' W 082°27'0 0.0
2017-Feb-26 18:34N 27°57' W 082°27'0 0.0
2017-Feb-26 17:31N 27°57' W 082°27'0 0.0
2017-Feb-26 16:31N 27°57' W 082°27'0 0.0
2017-Feb-26 15:31N 27°57' W 082°27'0 0.0
2017-Feb-26 14:34N 27°57' W 082°27'0 0.0
2017-Feb-26 13:31N 27°57' W 082°27'0 0.0
2017-Feb-26 12:34N 27°57' W 082°27'3 2.7
2017-Feb-26 11:34N 27°54' W 082°26'1111.0
2017-Feb-26 10:33N 27°44' W 082°32'1313.2
2017-Feb-26 09:33N 27°36' W 082°44'1413.4
2017-Feb-26 08:31N 27°35' W 082°60'1411.5
2017-Feb-26 07:19N 27°23' W 083°06'1012.8
2017-Feb-26 06:30N 27°13' W 083°10'  
2017-Feb-22 00:07N 20°23' W 087°04'813.4
2017-Feb-21 23:33N 20°29' W 086°59'1 0.6
2017-Feb-21 22:32N 20°29' W 086°59'0 0.0
2017-Feb-21 21:32N 20°29' W 086°59'0 0.0
2017-Feb-21 20:33N 20°29' W 086°59'0 0.0
2017-Feb-21 19:32N 20°29' W 086°59'0 0.0
2017-Feb-21 18:32N 20°29' W 086°59'0 0.0
2017-Feb-21 17:32N 20°29' W 086°59'0 0.0
2017-Feb-21 16:32N 20°29' W 086°59'0 0.0
2017-Feb-21 15:32N 20°29' W 086°59'0 0.0
2017-Feb-21 14:32N 20°29' W 086°59'0 0.0
2017-Feb-21 13:32N 20°29' W 086°59'0 0.0
2017-Feb-21 12:33N 20°29' W 086°59'4 3.7
2017-Feb-21 11:34N 20°32' W 086°58'1110.6
2017-Feb-21 10:33N 20°41' W 086°52'35112.8
2017-Feb-20 07:04N 25°54' W 083°58'918.1
2017-Feb-20 06:33N 26°02' W 083°53'1818.0
2017-Feb-20 05:33N 26°18' W 083°45'1817.8
2017-Feb-20 04:33N 26°34' W 083°36'1817.8
2017-Feb-20 03:33N 26°50' W 083°27'1817.9
2017-Feb-20 02:33N 27°06' W 083°18'1717.1
2017-Feb-20 01:33N 27°21' W 083°09'1616.3
2017-Feb-20 00:33N 27°35' W 082°60'1514.8
2017-Feb-19 23:33N 27°36' W 082°43'1413.8
2017-Feb-19 22:33N 27°46' W 082°31'1010.4
2017-Feb-19 21:33N 27°55' W 082°27'2 1.5
2017-Feb-19 20:33N 27°57' W 082°27'0 0.0
2017-Feb-19 19:33N 27°57' W 082°27'0 0.0
2017-Feb-19 18:33N 27°57' W 082°27'0 0.0
2017-Feb-19 17:33N 27°57' W 082°27'0 0.0
2017-Feb-19 16:33N 27°57' W 082°27'0 0.0
2017-Feb-19 15:33N 27°57' W 082°27'0 0.0
2017-Feb-19 14:30N 27°57' W 082°27'0 0.0
2017-Feb-19 13:33N 27°57' W 082°27'0 0.0
2017-Feb-19 12:33N 27°57' W 082°27'2 2.0
2017-Feb-19 11:33N 27°55' W 082°27'9 9.5
2017-Feb-19 10:33N 27°46' W 082°31'1413.8
2017-Feb-19 09:33N 27°36' W 082°42'1413.2
2017-Feb-19 08:30N 27°36' W 082°58'1010.8
2017-Feb-19 07:33N 27°28' W 083°06'45715.6
2017-Feb-18 02:13N 20°41' W 086°53'1218.5
2017-Feb-18 01:33N 20°30' W 086°59'1 1.1
2017-Feb-18 00:31N 20°29' W 086°59'0 0.0
2017-Feb-17 23:31N 20°29' W 086°59'0 0.0
2017-Feb-17 22:31N 20°29' W 086°59'0 0.0
2017-Feb-17 21:31N 20°29' W 086°59'0 0.0
2017-Feb-17 20:31N 20°29' W 086°59'0 0.0
2017-Feb-17 19:31N 20°29' W 086°59'0 0.0
2017-Feb-17 18:31N 20°29' W 086°59'0 0.0
2017-Feb-17 17:31N 20°29' W 086°59'0 0.0
2017-Feb-17 16:31N 20°29' W 086°59'0 0.0
2017-Feb-17 15:33N 20°29' W 086°59'5 5.2
2017-Feb-17 14:33N 20°34' W 086°58'  
Track history (hours):
 
Tides and Currents Weather Stations Pressure Air Temp Water Temp Dewpoint Dewpoint Depression Visibility Wind Speed Wind Dir Waves Ship Positions

Carnival Pride

Operator: Carnival Cruise Lines

Last reported at 2017-Feb-27 04:27 UTC. Time now 2017-Feb-28 05:47 UTC.
Position N 27°34' W 083°02'.

Type: Ship. MMSI: 354215000.

Date/timePositionNaut miles runAvg speedWind from/ knotsBaromVisibWave heightAir tempDewpointWater temp
2017-Feb-27 04:27N 27°34' W 083°02'1314.6
2017-Feb-27 03:33N 27°37' W 082°48'1313.2
2017-Feb-27 02:33N 27°41' W 082°34'1111.2
2017-Feb-27 01:33N 27°51' W 082°27'6 5.8
2017-Feb-27 00:31N 27°57' W 082°27'0 0.0
2017-Feb-26 23:31N 27°57' W 082°27'0 0.0
2017-Feb-26 22:34N 27°57' W 082°27'0 0.0
2017-Feb-26 21:31N 27°57' W 082°27'0 0.0
2017-Feb-26 20:31N 27°57' W 082°27'0 0.0
2017-Feb-26 19:34N 27°57' W 082°27'0 0.0
2017-Feb-26 18:34N 27°57' W 082°27'0 0.0
2017-Feb-26 17:31N 27°57' W 082°27'0 0.0
2017-Feb-26 16:31N 27°57' W 082°27'0 0.0
2017-Feb-26 15:31N 27°57' W 082°27'0 0.0
2017-Feb-26 14:34N 27°57' W 082°27'0 0.0
2017-Feb-26 13:31N 27°57' W 082°27'0 0.0
2017-Feb-26 12:34N 27°57' W 082°27'3 2.7
2017-Feb-26 11:34N 27°54' W 082°26'1111.0
2017-Feb-26 10:33N 27°44' W 082°32'1313.2
2017-Feb-26 09:33N 27°36' W 082°44'1413.4
2017-Feb-26 08:31N 27°35' W 082°60'1411.5
2017-Feb-26 07:19N 27°23' W 083°06'1012.8
2017-Feb-26 06:30N 27°13' W 083°10'  
2017-Feb-22 00:07N 20°23' W 087°04'813.4
2017-Feb-21 23:33N 20°29' W 086°59'1 0.6
2017-Feb-21 22:32N 20°29' W 086°59'0 0.0
2017-Feb-21 21:32N 20°29' W 086°59'0 0.0
2017-Feb-21 20:33N 20°29' W 086°59'0 0.0
2017-Feb-21 19:32N 20°29' W 086°59'0 0.0
2017-Feb-21 18:32N 20°29' W 086°59'0 0.0
2017-Feb-21 17:32N 20°29' W 086°59'0 0.0
2017-Feb-21 16:32N 20°29' W 086°59'0 0.0
2017-Feb-21 15:32N 20°29' W 086°59'0 0.0
2017-Feb-21 14:32N 20°29' W 086°59'0 0.0
2017-Feb-21 13:32N 20°29' W 086°59'0 0.0
2017-Feb-21 12:33N 20°29' W 086°59'4 3.7
2017-Feb-21 11:34N 20°32' W 086°58'1110.6
2017-Feb-21 10:33N 20°41' W 086°52'35112.8
2017-Feb-20 07:04N 25°54' W 083°58'918.1
2017-Feb-20 06:33N 26°02' W 083°53'1818.0
2017-Feb-20 05:33N 26°18' W 083°45'1817.8
2017-Feb-20 04:33N 26°34' W 083°36'1817.8
2017-Feb-20 03:33N 26°50' W 083°27'1817.9
2017-Feb-20 02:33N 27°06' W 083°18'1717.1
2017-Feb-20 01:33N 27°21' W 083°09'1616.3
2017-Feb-20 00:33N 27°35' W 082°60'1514.8
2017-Feb-19 23:33N 27°36' W 082°43'1413.8
2017-Feb-19 22:33N 27°46' W 082°31'1010.4
2017-Feb-19 21:33N 27°55' W 082°27'2 1.5
2017-Feb-19 20:33N 27°57' W 082°27'0 0.0
2017-Feb-19 19:33N 27°57' W 082°27'0 0.0
2017-Feb-19 18:33N 27°57' W 082°27'0 0.0
2017-Feb-19 17:33N 27°57' W 082°27'0 0.0
2017-Feb-19 16:33N 27°57' W 082°27'0 0.0
2017-Feb-19 15:33N 27°57' W 082°27'0 0.0
2017-Feb-19 14:30N 27°57' W 082°27'0 0.0
2017-Feb-19 13:33N 27°57' W 082°27'0 0.0
2017-Feb-19 12:33N 27°57' W 082°27'2 2.0
2017-Feb-19 11:33N 27°55' W 082°27'9 9.5
2017-Feb-19 10:33N 27°46' W 082°31'1413.8
2017-Feb-19 09:33N 27°36' W 082°42'1413.2
2017-Feb-19 08:30N 27°36' W 082°58'1010.8
2017-Feb-19 07:33N 27°28' W 083°06'45715.6
2017-Feb-18 02:13N 20°41' W 086°53'1218.5
2017-Feb-18 01:33N 20°30' W 086°59'1 1.1
2017-Feb-18 00:31N 20°29' W 086°59'0 0.0
2017-Feb-17 23:31N 20°29' W 086°59'0 0.0
2017-Feb-17 22:31N 20°29' W 086°59'0 0.0
2017-Feb-17 21:31N 20°29' W 086°59'0 0.0
2017-Feb-17 20:31N 20°29' W 086°59'0 0.0
2017-Feb-17 19:31N 20°29' W 086°59'0 0.0
2017-Feb-17 18:31N 20°29' W 086°59'0 0.0
2017-Feb-17 17:31N 20°29' W 086°59'0 0.0
2017-Feb-17 16:31N 20°29' W 086°59'0 0.0
2017-Feb-17 15:33N 20°29' W 086°59'5 5.2
2017-Feb-17 14:33N 20°34' W 086°58'  

Dump ship's entire track history